createdAt,value
2022-10-30T00:00:31.959Z,16.10
2022-10-30T00:01:31.976Z,21.00
2022-10-30T00:02:31.987Z,20.60
2022-10-30T00:03:31.885Z,20.10
2022-10-30T00:04:31.824Z,15.60
2022-10-30T00:05:31.800Z,16.40
2022-10-30T00:06:31.773Z,15.90
2022-10-30T00:07:31.736Z,19.40
2022-10-30T00:08:31.743Z,14.80
2022-10-30T00:09:31.678Z,17.00
2022-10-30T00:10:31.627Z,16.80
2022-10-30T00:11:31.604Z,13.00
2022-10-30T00:12:31.563Z,14.10
2022-10-30T00:13:31.535Z,15.70
2022-10-30T00:14:31.516Z,20.10
2022-10-30T00:15:31.467Z,17.70
2022-10-30T00:16:31.425Z,16.80
2022-10-30T00:17:31.403Z,16.70
2022-10-30T00:18:31.354Z,19.20
2022-10-30T00:19:31.346Z,16.80
2022-10-30T00:20:31.276Z,19.30
2022-10-30T00:21:31.252Z,18.20
2022-10-30T00:22:31.207Z,16.10
2022-10-30T00:23:31.175Z,13.40
2022-10-30T00:24:31.134Z,18.10
2022-10-30T00:25:31.120Z,16.20
2022-10-30T00:26:31.048Z,16.40
2022-10-30T00:27:31.017Z,16.00
2022-10-30T00:28:30.984Z,16.90
2022-10-30T00:29:30.950Z,13.70
2022-10-30T00:30:30.920Z,15.50
2022-10-30T00:31:30.880Z,14.90
2022-10-30T00:32:30.831Z,15.10
2022-10-30T00:33:30.804Z,17.60
2022-10-30T00:34:30.759Z,21.80
2022-10-30T00:35:30.734Z,15.90
2022-10-30T00:36:30.672Z,17.80
2022-10-30T00:37:30.641Z,17.70
2022-10-30T00:38:30.601Z,17.70
2022-10-30T00:39:30.552Z,19.80
2022-10-30T00:40:30.531Z,20.10
2022-10-30T00:41:30.480Z,18.10
2022-10-30T00:42:30.433Z,22.70
2022-10-30T00:43:30.402Z,14.90
2022-10-30T00:44:30.358Z,15.40
2022-10-30T00:45:30.322Z,15.60
2022-10-30T00:46:30.300Z,15.50
2022-10-30T00:47:30.245Z,14.70
2022-10-30T00:48:30.196Z,14.70
2022-10-30T00:49:30.154Z,15.70
2022-10-30T00:50:30.106Z,14.30
2022-10-30T00:51:30.086Z,16.80
2022-10-30T00:52:30.036Z,12.40
2022-10-30T00:53:30.003Z,18.00
2022-10-30T00:54:29.956Z,14.40
2022-10-30T00:55:29.920Z,17.00
2022-10-30T00:56:29.885Z,16.20
2022-10-30T00:57:29.840Z,15.60
2022-10-30T00:58:29.787Z,16.40
2022-10-30T00:59:29.758Z,13.10
2022-10-30T01:00:29.707Z,15.80
2022-10-30T01:01:29.791Z,18.10
2022-10-30T01:02:29.663Z,14.60
2022-10-30T01:03:29.597Z,15.20
2022-10-30T01:04:30.392Z,15.60
2022-10-30T01:05:29.520Z,12.50
2022-10-30T01:06:29.499Z,12.60
2022-10-30T01:07:29.443Z,13.00
2022-10-30T01:08:29.444Z,15.20
2022-10-30T01:09:29.370Z,14.00
2022-10-30T01:10:29.330Z,16.80
2022-10-30T06:57:41.898Z,30.50
2022-10-30T06:58:41.830Z,27.50
2022-10-30T06:59:41.797Z,24.20
2022-10-30T07:00:41.818Z,21.90
2022-10-30T07:01:41.758Z,18.40
2022-10-30T07:02:41.640Z,19.10
2022-10-30T07:03:41.580Z,18.50
2022-10-30T07:04:41.520Z,16.10
2022-10-30T07:05:41.467Z,17.70
2022-10-30T07:06:41.510Z,19.30
2022-10-30T07:07:41.353Z,19.50
2022-10-30T07:08:41.282Z,20.70
2022-10-30T07:09:41.229Z,15.40
2022-10-30T07:10:41.171Z,15.10
2022-10-30T07:11:41.099Z,12.80
2022-10-30T07:12:41.034Z,14.20
2022-10-30T07:13:48.469Z,12.70
2022-10-30T07:14:40.897Z,14.70
2022-10-30T07:16:40.772Z,22.90
2022-10-30T07:17:40.721Z,22.10
2022-10-30T07:18:40.654Z,15.80
2022-10-30T07:19:40.581Z,13.50
2022-10-30T07:20:40.501Z,17.70
2022-10-30T07:21:40.443Z,17.10
2022-10-30T07:22:40.382Z,18.40
2022-10-30T07:23:40.289Z,14.60
2022-10-30T07:24:40.212Z,15.00
2022-10-30T07:25:40.163Z,18.20
2022-10-30T07:26:40.074Z,18.60
2022-10-30T07:27:40.003Z,23.40
2022-10-30T07:28:39.960Z,14.90
2022-10-30T07:29:39.874Z,19.20
2022-10-30T07:30:39.794Z,16.00
2022-10-30T07:31:42.353Z,21.20
2022-10-30T07:32:39.693Z,14.90
2022-10-30T07:33:39.602Z,14.50
2022-10-30T07:34:39.515Z,18.90
2022-10-30T07:35:39.471Z,19.10
2022-10-30T07:36:39.345Z,14.40
2022-10-30T07:37:39.286Z,16.70
2022-10-30T07:38:39.206Z,15.10
2022-10-30T07:39:39.147Z,18.50
2022-10-30T07:40:39.039Z,18.10
2022-10-30T07:41:38.967Z,23.30
2022-10-30T07:42:38.916Z,17.00
2022-10-30T07:43:38.830Z,18.90
2022-10-30T07:44:38.781Z,19.60
2022-10-30T07:45:38.676Z,19.00
2022-10-30T07:46:38.590Z,22.60
2022-10-30T07:47:38.580Z,19.20
2022-10-30T07:48:38.460Z,17.10
2022-10-30T07:49:38.390Z,17.30
2022-10-30T07:50:38.272Z,17.00
2022-10-30T07:51:38.200Z,16.80
2022-10-30T07:52:38.118Z,15.50
2022-10-30T07:53:38.050Z,14.80
2022-10-30T07:54:38.006Z,21.10
2022-10-30T07:55:37.904Z,16.80
2022-10-30T07:56:37.791Z,15.90
2022-10-30T07:57:37.712Z,15.10
2022-10-30T07:58:41.293Z,14.60
2022-10-30T07:59:38.597Z,20.10
2022-10-30T08:00:37.462Z,14.40
2022-10-30T08:01:37.479Z,13.80
2022-10-30T08:02:37.447Z,16.60
2022-10-30T08:03:37.213Z,16.00
2022-10-30T08:04:37.121Z,17.70
2022-10-30T08:05:37.036Z,14.60
2022-10-30T08:06:36.962Z,16.30
2022-10-30T08:07:36.865Z,22.20
2022-10-30T08:08:42.116Z,18.60
2022-10-30T08:09:37.684Z,15.70
2022-10-30T08:10:36.615Z,16.40
2022-10-30T08:11:36.493Z,16.60
2022-10-30T08:12:36.397Z,13.30
2022-10-30T08:13:36.326Z,17.50
2022-10-30T08:14:36.227Z,15.90
2022-10-30T08:15:36.165Z,14.80
2022-10-30T08:16:36.047Z,16.50
2022-10-30T08:17:35.969Z,17.50
2022-10-30T08:18:35.901Z,15.70
2022-10-30T08:19:35.792Z,16.10
2022-10-30T08:20:35.750Z,16.90
2022-10-30T08:21:35.639Z,14.30
2022-10-30T08:22:35.533Z,16.20
2022-10-30T08:23:35.458Z,18.20
2022-10-30T08:24:35.351Z,24.40
2022-10-30T08:25:35.260Z,24.20
2022-10-30T08:26:35.169Z,22.50
2022-10-30T08:27:35.080Z,28.10
2022-10-30T08:28:34.992Z,21.10
2022-10-30T08:29:34.896Z,19.70
2022-10-30T08:30:34.797Z,19.00
2022-10-30T08:31:34.724Z,20.90
2022-10-30T08:32:34.608Z,23.90
2022-10-30T08:33:34.518Z,19.80
2022-10-30T08:34:34.411Z,23.60
2022-10-30T08:36:34.254Z,22.40
2022-10-30T08:37:34.139Z,23.90
2022-10-30T08:38:34.046Z,27.20
2022-10-30T08:39:33.943Z,26.70
2022-10-30T08:40:33.862Z,28.10
2022-10-30T08:41:33.754Z,27.60
2022-10-30T08:42:33.666Z,26.20
2022-10-30T08:43:33.566Z,26.60
2022-10-30T08:44:33.456Z,24.80
2022-10-30T08:45:33.355Z,28.20
2022-10-30T08:46:33.255Z,32.00
2022-10-30T08:47:33.177Z,30.00
2022-10-30T08:48:33.057Z,28.30
2022-10-30T08:49:32.948Z,28.20
2022-10-30T08:50:32.888Z,26.80
2022-10-30T08:51:32.766Z,31.40
2022-10-30T08:52:32.688Z,30.20
2022-10-30T08:53:32.559Z,32.50
2022-10-30T08:54:32.478Z,32.40
2022-10-30T08:55:32.370Z,28.70
2022-10-30T08:56:32.280Z,26.60
2022-10-30T08:57:32.189Z,26.20
2022-10-30T08:58:32.078Z,29.40
2022-10-30T08:59:31.960Z,25.70
2022-10-30T09:00:31.871Z,27.80
2022-10-30T09:01:31.839Z,26.90
2022-10-30T09:02:31.808Z,28.00
2022-10-30T09:03:31.545Z,25.70
2022-10-30T09:04:31.463Z,23.50
2022-10-30T09:05:31.333Z,26.50
2022-10-30T09:06:31.231Z,26.80
2022-10-30T09:07:31.124Z,28.30
2022-10-30T09:08:31.013Z,28.50
2022-10-30T09:09:30.904Z,26.10
2022-10-30T09:10:30.812Z,31.10
2022-10-30T09:11:30.678Z,28.50
2022-10-30T09:12:30.584Z,24.20
2022-10-30T09:13:30.455Z,27.30
2022-10-30T09:14:30.347Z,25.20
2022-10-30T09:15:30.234Z,26.80
2022-10-30T09:16:30.127Z,21.00
2022-10-30T09:17:29.998Z,18.10
2022-10-30T09:18:29.929Z,20.30
2022-10-30T09:19:29.784Z,17.90
2022-10-30T09:20:29.674Z,19.50
2022-10-30T09:21:29.550Z,18.90
2022-10-30T09:22:29.428Z,18.00
2022-10-30T09:23:29.326Z,15.70
2022-10-30T09:24:29.207Z,15.10
2022-10-30T09:25:29.100Z,15.90
2022-10-30T09:26:28.981Z,15.80
2022-10-30T09:27:28.849Z,18.10
2022-10-30T09:28:28.753Z,17.40
2022-10-30T09:29:28.610Z,18.70
2022-10-30T09:30:28.492Z,18.60
2022-10-30T09:31:28.368Z,18.00
2022-10-30T09:32:28.253Z,15.20
2022-10-30T09:33:28.141Z,16.60
2022-10-30T09:35:27.887Z,14.60
2022-10-30T09:36:27.761Z,21.60
2022-10-30T09:37:27.636Z,17.20
2022-10-30T09:38:27.525Z,15.60
2022-10-30T09:39:27.364Z,14.80
2022-10-30T09:40:27.246Z,17.50
2022-10-30T09:41:27.134Z,14.40
2022-10-30T09:42:27.005Z,12.40
2022-10-30T09:43:26.862Z,18.30
2022-10-30T09:44:26.756Z,23.30
2022-10-30T09:45:29.660Z,17.20
2022-10-30T09:46:26.486Z,13.00
2022-10-30T09:47:26.356Z,15.10
2022-10-30T09:48:26.237Z,16.60
2022-10-30T09:49:26.096Z,19.10
2022-10-30T09:50:25.973Z,18.60
2022-10-30T09:51:25.837Z,15.40
2022-10-30T09:52:25.697Z,17.10
2022-10-30T09:53:25.568Z,12.70
2022-10-30T09:54:25.448Z,13.90
2022-10-30T09:55:25.307Z,13.20
2022-10-30T09:56:25.191Z,15.60
2022-10-30T09:57:25.059Z,14.70
2022-10-30T09:58:24.930Z,11.00
2022-10-30T09:59:24.809Z,18.70
2022-10-30T10:00:24.674Z,15.90
2022-10-30T10:01:24.645Z,13.10
2022-10-30T10:02:24.491Z,16.20
2022-10-30T10:03:24.262Z,15.00
2022-10-30T10:04:26.721Z,15.50
2022-10-30T10:05:24.005Z,15.70
2022-10-30T10:06:23.874Z,19.00
2022-10-30T10:07:23.742Z,19.00
2022-10-30T10:08:23.604Z,14.70
2022-10-30T10:09:23.469Z,15.80
2022-10-30T10:10:23.427Z,14.30
2022-10-30T10:11:23.194Z,14.70
2022-10-30T10:12:23.064Z,15.30
2022-10-30T10:13:22.916Z,17.40
2022-10-30T10:14:22.797Z,14.90
2022-10-30T10:15:22.657Z,15.40
2022-10-30T10:16:22.530Z,14.90
2022-10-30T10:17:22.378Z,19.00
2022-10-30T10:18:22.313Z,13.70
2022-10-30T10:19:22.117Z,12.70
2022-10-30T10:20:22.043Z,14.20
2022-10-30T10:21:21.849Z,14.40
2022-10-30T10:22:21.722Z,15.30
2022-10-30T10:23:21.580Z,17.30
2022-10-30T10:24:21.450Z,12.10
2022-10-30T10:25:21.318Z,19.40
2022-10-30T10:26:21.216Z,18.40
2022-10-30T10:27:21.027Z,14.20
2022-10-30T10:28:20.904Z,15.10
2022-10-30T10:29:20.764Z,14.90
2022-10-30T10:30:20.712Z,12.20
2022-10-30T10:31:20.493Z,13.10
2022-10-30T10:32:20.361Z,14.00
2022-10-30T10:33:20.251Z,15.80
2022-10-30T10:34:20.093Z,12.70
2022-10-30T10:35:19.955Z,12.90
2022-10-30T10:36:19.804Z,13.40
2022-10-30T10:37:19.656Z,14.80
2022-10-30T10:38:19.537Z,17.60
2022-10-30T10:39:19.369Z,13.10
2022-10-30T10:40:19.261Z,16.50
2022-10-30T10:41:19.086Z,11.80
2022-10-30T10:42:18.947Z,14.80
2022-10-30T10:43:18.814Z,16.70
2022-10-30T10:44:18.675Z,17.60
2022-10-30T10:45:18.529Z,22.30
2022-10-30T10:46:18.389Z,17.30
2022-10-30T10:47:18.240Z,12.40
2022-10-30T10:48:18.121Z,14.80
2022-10-30T10:49:17.956Z,15.30
2022-10-30T10:50:17.811Z,13.50
2022-10-30T10:51:17.666Z,15.60
2022-10-30T10:52:17.518Z,15.50
2022-10-30T10:53:17.371Z,15.50
2022-10-30T10:54:17.232Z,16.00
2022-10-30T10:55:17.081Z,15.00
2022-10-30T10:56:16.953Z,13.40
2022-10-30T10:57:16.794Z,15.40
2022-10-30T10:58:16.643Z,14.10
2022-10-30T10:59:16.501Z,14.20
2022-10-30T11:00:16.344Z,12.50
2022-10-30T11:01:16.266Z,14.20
2022-10-30T11:02:16.178Z,15.00
2022-10-30T11:04:15.734Z,18.30
2022-10-30T11:05:15.575Z,12.20
2022-10-30T11:06:15.458Z,13.70
2022-10-30T11:07:15.268Z,14.20
2022-10-30T11:08:15.127Z,14.60
2022-10-30T11:09:14.969Z,15.80
2022-10-30T11:10:14.824Z,14.10
2022-10-30T11:11:14.698Z,11.00
2022-10-30T11:12:14.527Z,12.50
2022-10-30T11:13:14.388Z,12.50
2022-10-30T11:14:14.234Z,17.30
2022-10-30T11:15:14.077Z,16.40
2022-10-30T11:16:13.942Z,14.30
2022-10-30T11:17:13.808Z,12.70
2022-10-30T11:18:13.653Z,17.70
2022-10-30T11:19:13.490Z,15.70
2022-10-30T11:20:13.353Z,13.40
2022-10-30T11:21:13.203Z,17.20
2022-10-30T11:22:13.073Z,12.20
2022-10-30T11:23:12.905Z,13.70
2022-10-30T11:24:12.765Z,15.30
2022-10-30T11:25:12.604Z,13.60
2022-10-30T11:26:12.476Z,17.80
2022-10-30T11:27:12.345Z,12.40
2022-10-30T11:28:12.193Z,18.00
2022-10-30T11:29:12.042Z,15.30
2022-10-30T11:30:11.887Z,21.80
2022-10-30T11:31:11.739Z,14.00
2022-10-30T11:32:11.608Z,13.30
2022-10-30T11:33:11.476Z,18.00
2022-10-30T11:34:11.322Z,16.50
2022-10-30T11:35:11.166Z,15.90
2022-10-30T11:36:15.547Z,16.60
2022-10-30T11:37:11.870Z,15.90
2022-10-30T11:38:10.747Z,14.00
2022-10-30T11:39:10.590Z,16.70
2022-10-30T11:40:10.448Z,16.30
2022-10-30T11:41:10.288Z,18.70
2022-10-30T11:42:10.140Z,14.90
2022-10-30T11:43:09.988Z,13.40
2022-10-30T11:44:09.830Z,17.90
2022-10-30T11:45:09.682Z,15.10
2022-10-30T11:46:09.543Z,17.80
2022-10-30T11:47:09.389Z,16.50
2022-10-30T11:48:13.475Z,18.80
2022-10-30T11:49:10.093Z,14.50
2022-10-30T11:50:08.952Z,15.60
2022-10-30T11:51:08.848Z,11.70
2022-10-30T11:52:08.654Z,13.10
2022-10-30T11:53:08.474Z,10.10
2022-10-30T11:54:08.345Z,16.10
2022-10-30T11:55:08.186Z,13.10
2022-10-30T11:56:08.046Z,15.50
2022-10-30T11:57:07.889Z,14.80
2022-10-30T11:58:07.753Z,13.40
2022-10-30T11:59:07.619Z,13.90
2022-10-30T12:00:07.450Z,13.20
2022-10-30T12:01:07.299Z,19.60
2022-10-30T12:02:07.355Z,14.80
2022-10-30T12:03:06.981Z,16.60
2022-10-30T12:04:06.838Z,16.50
2022-10-30T12:05:06.707Z,13.80
2022-10-30T12:06:06.544Z,12.60
2022-10-30T12:07:06.381Z,15.30
2022-10-30T12:08:06.253Z,12.20
2022-10-30T12:09:06.088Z,12.80
2022-10-30T12:10:05.947Z,16.60
2022-10-30T12:11:05.792Z,16.60
2022-10-30T12:12:06.839Z,17.50
2022-10-30T12:13:05.490Z,14.20
2022-10-30T12:14:05.345Z,13.60
2022-10-30T12:15:05.288Z,11.70
2022-10-30T12:16:05.056Z,13.90
2022-10-30T12:17:04.889Z,11.30
2022-10-30T12:18:04.766Z,12.40
2022-10-30T12:19:04.604Z,15.90
2022-10-30T12:20:04.477Z,13.90
2022-10-30T12:21:04.306Z,14.20
2022-10-30T12:22:06.363Z,13.40
2022-10-30T12:23:04.998Z,17.70
2022-10-30T12:24:03.848Z,13.30
2022-10-30T12:25:03.718Z,12.20
2022-10-30T12:26:03.550Z,13.20
2022-10-30T12:27:03.399Z,9.20
2022-10-30T12:28:03.239Z,15.40
2022-10-30T12:29:03.091Z,14.30
2022-10-30T12:30:08.286Z,13.80
2022-10-30T12:31:03.802Z,12.40
2022-10-30T12:32:02.615Z,14.30
2022-10-30T12:33:02.618Z,13.90
2022-10-30T12:34:02.346Z,17.40
2022-10-30T12:35:02.164Z,14.00
2022-10-30T12:36:02.036Z,16.30
2022-10-30T12:37:01.852Z,20.60
2022-10-30T12:38:02.091Z,16.10
2022-10-30T12:39:01.545Z,17.70
2022-10-30T12:40:01.405Z,14.00
2022-10-30T12:41:01.245Z,12.40
2022-10-30T12:42:01.104Z,13.00
2022-10-30T12:43:00.951Z,13.00
2022-10-30T12:44:00.801Z,9.00
2022-10-30T12:45:00.640Z,14.20
2022-10-30T12:46:00.508Z,16.10
2022-10-30T12:47:00.337Z,16.10
2022-10-30T12:48:00.618Z,17.60
2022-10-30T12:49:00.018Z,16.80
2022-10-30T12:49:59.920Z,16.30
2022-10-30T12:50:59.729Z,14.40
2022-10-30T12:51:59.567Z,12.90
2022-10-30T12:52:59.797Z,15.60
2022-10-30T12:53:59.240Z,16.40
2022-10-30T12:54:59.080Z,14.30
2022-10-30T12:55:58.931Z,15.00
2022-10-30T12:56:58.761Z,13.80
2022-10-30T12:57:58.614Z,14.60
2022-10-30T12:58:58.433Z,15.40
2022-10-30T12:59:58.283Z,15.20
2022-10-30T13:00:58.197Z,14.20
2022-10-30T13:01:58.084Z,14.90
2022-10-30T13:02:58.086Z,14.60
2022-10-30T13:03:57.651Z,13.40
2022-10-30T13:04:57.474Z,19.00
2022-10-30T13:05:57.349Z,18.00
2022-10-30T13:06:57.165Z,16.30
2022-10-30T13:07:57.433Z,14.80
2022-10-30T13:08:56.858Z,14.80
2022-10-30T13:09:56.695Z,13.10
2022-10-30T13:10:56.555Z,11.60
2022-10-30T13:11:56.376Z,17.50
2022-10-30T13:12:56.259Z,17.30
2022-10-30T13:14:03.076Z,12.40
2022-10-30T13:14:55.926Z,17.10
2022-10-30T13:15:55.782Z,12.90
2022-10-30T13:16:55.618Z,15.40
2022-10-30T13:17:55.576Z,10.90
2022-10-30T13:18:55.327Z,17.10
2022-10-30T13:19:55.167Z,12.10
2022-10-30T13:20:55.032Z,16.90
2022-10-30T13:21:54.859Z,15.10
2022-10-30T13:22:54.719Z,14.10
2022-10-30T13:23:54.568Z,12.50
2022-10-30T13:24:56.808Z,16.60
2022-10-30T13:25:55.268Z,13.80
2022-10-30T13:26:54.101Z,13.60
2022-10-30T13:27:53.941Z,12.40
2022-10-30T13:28:53.803Z,13.30
2022-10-30T13:29:53.646Z,17.80
2022-10-30T13:30:53.491Z,16.40
2022-10-30T13:31:53.319Z,13.70
2022-10-30T13:32:53.173Z,15.90
2022-10-30T13:33:53.015Z,14.20
2022-10-30T13:34:52.845Z,16.70
2022-10-30T13:35:52.685Z,15.20
2022-10-30T13:36:52.561Z,11.50
2022-10-30T13:37:52.384Z,12.90
2022-10-30T13:38:52.227Z,12.50
2022-10-30T13:39:52.065Z,11.00
2022-10-30T13:40:51.927Z,13.90
2022-10-30T13:41:51.775Z,12.60
2022-10-30T13:42:51.618Z,14.20
2022-10-30T13:43:51.449Z,16.70
2022-10-30T13:44:51.292Z,16.90
2022-10-30T13:45:51.127Z,11.20
2022-10-30T13:46:50.989Z,15.50
2022-10-30T13:47:50.820Z,15.20
2022-10-30T13:48:50.660Z,15.00
2022-10-30T13:49:50.501Z,16.10
2022-10-30T13:50:50.353Z,19.40
2022-10-30T13:51:50.200Z,11.10
2022-10-30T13:52:50.057Z,13.50
2022-10-30T13:53:49.873Z,14.20
2022-10-30T13:54:49.731Z,18.40
2022-10-30T13:55:49.573Z,13.60
2022-10-30T13:56:49.423Z,11.50
2022-10-30T13:57:49.262Z,17.00
2022-10-30T13:58:49.103Z,14.30
2022-10-30T13:59:48.945Z,15.10
2022-10-30T14:00:48.795Z,14.20
2022-10-30T14:01:48.701Z,14.60
2022-10-30T14:02:48.645Z,13.80
2022-10-30T14:03:48.320Z,14.20
2022-10-30T14:04:48.175Z,14.70
2022-10-30T14:05:48.006Z,15.00
2022-10-30T14:06:47.868Z,13.70
2022-10-30T14:07:47.715Z,14.80
2022-10-30T14:08:47.578Z,15.30
2022-10-30T14:09:47.398Z,14.00
2022-10-30T14:10:47.249Z,9.60
2022-10-30T14:11:47.109Z,14.70
2022-10-30T14:12:46.950Z,13.00
2022-10-30T14:13:46.792Z,15.90
2022-10-30T14:14:46.642Z,16.70
2022-10-30T14:15:46.480Z,16.60
2022-10-30T14:16:46.342Z,15.90
2022-10-30T14:17:46.181Z,17.20
2022-10-30T14:18:46.032Z,13.20
2022-10-30T14:19:45.863Z,14.30
2022-10-30T14:20:45.721Z,14.70
2022-10-30T14:21:45.571Z,16.20
2022-10-30T14:22:45.423Z,19.10
2022-10-30T14:23:45.255Z,13.50
2022-10-30T14:24:45.105Z,14.30
2022-10-30T14:25:44.955Z,16.10
2022-10-30T14:26:48.511Z,15.70
2022-10-30T14:27:45.657Z,15.20
2022-10-30T14:28:44.496Z,16.60
2022-10-30T14:29:44.335Z,14.20
2022-10-30T14:30:44.196Z,14.70
2022-10-30T14:31:44.037Z,11.30
2022-10-30T14:32:43.896Z,14.90
2022-10-30T14:33:43.740Z,13.60
2022-10-30T14:34:43.586Z,13.30
2022-10-30T14:35:43.429Z,11.50
2022-10-30T14:36:43.271Z,22.30
2022-10-30T14:37:43.100Z,15.50
2022-10-30T14:38:42.969Z,17.00
2022-10-30T14:39:42.801Z,16.50
2022-10-30T14:40:42.641Z,11.90
2022-10-30T14:41:42.481Z,27.10
2022-10-30T14:42:42.345Z,11.90
2022-10-30T14:43:42.182Z,17.30
2022-10-30T14:44:42.003Z,22.70
2022-10-30T14:45:41.857Z,13.70
2022-10-30T14:46:41.714Z,17.20
2022-10-30T14:47:41.545Z,14.30
2022-10-30T14:48:41.434Z,15.10
2022-10-30T14:49:41.235Z,14.70
2022-10-30T14:50:41.085Z,15.20
2022-10-30T14:51:40.935Z,16.20
2022-10-30T14:52:40.798Z,14.40
2022-10-30T14:53:40.627Z,16.70
2022-10-30T14:54:40.487Z,16.20
2022-10-30T14:55:40.327Z,13.00
2022-10-30T14:56:40.168Z,11.70
2022-10-30T14:57:40.020Z,15.90
2022-10-30T14:58:39.877Z,17.90
2022-10-30T14:59:39.727Z,10.90
2022-10-30T15:00:39.578Z,19.30
2022-10-30T15:01:39.486Z,16.20
2022-10-30T15:02:39.428Z,16.40
2022-10-30T15:03:39.113Z,16.10
2022-10-30T15:04:38.969Z,17.90
2022-10-30T15:05:38.857Z,23.00
2022-10-30T15:06:38.662Z,13.00
2022-10-30T15:07:38.514Z,12.00
2022-10-30T15:08:38.362Z,18.00
2022-10-30T15:09:38.213Z,14.70
2022-10-30T15:10:38.072Z,16.30
2022-10-30T15:11:37.914Z,14.90
2022-10-30T15:12:37.770Z,11.40
2022-10-30T15:13:37.614Z,13.90
2022-10-30T15:14:53.411Z,16.80
2022-10-30T15:15:38.335Z,16.70
2022-10-30T15:16:37.184Z,22.40
2022-10-30T15:17:37.045Z,18.60
2022-10-30T15:18:36.908Z,17.50
2022-10-30T15:19:36.766Z,17.10
2022-10-30T15:20:36.617Z,13.30
2022-10-30T15:21:36.478Z,13.80
2022-10-30T15:22:36.330Z,13.10
2022-10-30T15:23:36.177Z,15.80
2022-10-30T15:24:36.058Z,20.20
2022-10-30T15:25:35.927Z,12.90
2022-10-30T15:26:35.788Z,13.60
2022-10-30T15:27:35.679Z,13.20
2022-10-30T15:28:35.509Z,14.20
2022-10-30T15:29:35.367Z,14.60
2022-10-30T15:30:35.251Z,15.60
2022-10-30T15:31:35.111Z,18.90
2022-10-30T15:32:35.046Z,15.70
2022-10-30T15:33:34.850Z,20.10
2022-10-30T15:34:34.702Z,15.10
2022-10-30T15:35:34.572Z,15.10
2022-10-30T15:36:34.452Z,13.00
2022-10-30T15:37:34.314Z,13.60
2022-10-30T15:38:34.173Z,16.00
2022-10-30T15:39:34.042Z,14.70
2022-10-30T15:40:33.933Z,15.70
2022-10-30T15:41:33.783Z,15.00
2022-10-30T15:42:33.654Z,16.10
2022-10-30T15:43:33.526Z,18.80
2022-10-30T15:44:33.406Z,18.20
2022-10-30T15:45:33.275Z,12.00
2022-10-30T15:46:33.164Z,15.70
2022-10-30T15:47:33.018Z,20.90
2022-10-30T15:48:32.927Z,17.00
2022-10-30T15:49:32.778Z,18.80
2022-10-30T15:50:32.669Z,15.10
2022-10-30T15:51:32.558Z,10.90
2022-10-30T15:52:32.420Z,14.60
2022-10-30T15:53:32.293Z,15.60
2022-10-30T15:54:32.209Z,16.60
2022-10-30T15:55:32.056Z,13.20
2022-10-30T15:56:31.949Z,12.50
2022-10-30T15:58:01.055Z,29.30
2022-10-30T15:58:32.691Z,18.90
2022-10-30T15:59:31.577Z,20.80
2022-10-30T16:00:31.452Z,9.90
2022-10-30T16:01:31.440Z,13.80
2022-10-30T16:02:31.277Z,14.40
2022-10-30T16:03:31.086Z,18.80
2022-10-30T16:04:31.360Z,14.60
2022-10-30T16:05:30.840Z,16.10
2022-10-30T16:06:30.732Z,14.00
2022-10-30T16:07:30.607Z,13.30
2022-10-30T16:08:30.483Z,15.10
2022-10-30T16:09:30.365Z,20.40
2022-10-30T16:10:30.262Z,16.50
2022-10-30T16:11:30.134Z,11.00
2022-10-30T16:12:30.026Z,18.60
2022-10-30T16:13:29.898Z,18.30
2022-10-30T16:14:29.816Z,17.30
2022-10-30T16:15:29.686Z,14.40
2022-10-30T16:16:29.568Z,12.90
2022-10-30T16:17:29.458Z,13.40
2022-10-30T16:18:29.347Z,13.20
2022-10-30T16:19:29.507Z,15.20
2022-10-30T16:20:29.140Z,17.10
2022-10-30T16:21:29.019Z,17.50
2022-10-30T16:22:28.942Z,13.90
2022-10-30T16:23:28.807Z,17.90
2022-10-30T16:24:28.708Z,18.00
2022-10-30T16:25:28.597Z,15.40
2022-10-30T16:26:28.501Z,10.20
2022-10-30T16:27:28.406Z,21.60
2022-10-30T16:28:28.294Z,15.00
2022-10-30T16:29:28.194Z,16.60
2022-10-30T16:30:28.094Z,12.00
2022-10-30T16:31:27.974Z,11.50
2022-10-30T16:32:27.964Z,15.60
2022-10-30T16:33:27.792Z,15.90
2022-10-30T16:34:27.683Z,17.70
2022-10-30T16:35:27.581Z,17.00
2022-10-30T16:36:27.494Z,18.50
2022-10-30T16:37:27.384Z,16.80
2022-10-30T16:38:27.324Z,18.80
2022-10-30T16:39:27.194Z,18.90
2022-10-30T16:40:27.126Z,19.00
2022-10-30T16:41:27.337Z,16.80
2022-10-30T16:42:26.915Z,16.30
2022-10-30T16:43:26.834Z,17.80
2022-10-30T16:44:26.745Z,14.80
2022-10-30T16:45:26.626Z,18.20
2022-10-30T16:46:26.548Z,23.00
2022-10-30T16:47:26.458Z,17.90
2022-10-30T16:48:26.369Z,19.80
2022-10-30T16:49:26.289Z,22.80
2022-10-30T16:50:26.198Z,21.10
2022-10-30T16:51:26.114Z,22.80
2022-10-30T16:52:26.018Z,21.20
2022-10-30T16:53:25.938Z,21.90
2022-10-30T16:54:25.859Z,19.70
2022-10-30T16:55:25.749Z,16.30
2022-10-30T16:56:25.749Z,21.00
2022-10-30T16:57:25.589Z,19.20
2022-10-30T16:58:25.490Z,19.70
2022-10-30T16:59:25.410Z,20.30
2022-10-30T17:00:27.164Z,20.50
2022-10-30T17:01:25.311Z,27.30
2022-10-30T17:02:25.208Z,22.50
2022-10-30T17:03:25.056Z,19.10
2022-10-30T17:04:24.970Z,18.40
2022-10-30T17:05:24.883Z,17.30
2022-10-30T17:06:24.793Z,24.20
2022-10-30T17:07:24.713Z,19.40
2022-10-30T17:08:24.634Z,16.80
2022-10-30T17:09:24.586Z,18.40
2022-10-30T17:10:24.464Z,19.90
2022-10-30T17:11:24.367Z,19.10
2022-10-30T17:12:24.284Z,20.50
2022-10-30T17:13:24.195Z,21.90
2022-10-30T17:14:24.106Z,20.00
2022-10-30T17:15:24.025Z,15.90
2022-10-30T17:16:25.339Z,18.80
2022-10-30T17:17:23.866Z,22.40
2022-10-30T17:18:23.778Z,17.00
2022-10-30T17:19:23.707Z,18.40
2022-10-30T17:20:26.439Z,21.80
2022-10-30T17:21:24.537Z,21.90
2022-10-30T17:22:23.447Z,21.70
2022-10-30T17:23:23.389Z,21.00
2022-10-30T17:24:23.288Z,25.70
2022-10-30T17:25:23.239Z,27.10
2022-10-30T17:26:23.139Z,21.60
2022-10-30T17:27:23.079Z,22.40
2022-10-30T17:28:22.990Z,23.70
2022-10-30T17:29:22.923Z,22.80
2022-10-30T17:30:22.861Z,21.80
2022-10-30T17:31:22.769Z,21.60
2022-10-30T17:32:22.692Z,22.80
2022-10-30T17:33:22.640Z,19.10
2022-10-30T17:34:22.551Z,18.80
2022-10-30T17:35:22.491Z,24.00
2022-10-30T17:36:22.433Z,24.30
2022-10-30T17:37:22.364Z,23.30
2022-10-30T17:38:22.273Z,22.40
2022-10-30T17:39:22.213Z,21.50
2022-10-30T17:40:22.144Z,20.10
2022-10-30T17:41:22.091Z,23.60
2022-10-30T17:42:22.014Z,33.90
2022-10-30T17:43:21.954Z,26.30
2022-10-30T17:44:21.882Z,26.40
2022-10-30T17:45:21.814Z,20.80
2022-10-30T17:46:21.779Z,28.00
2022-10-30T17:47:21.715Z,28.60
2022-10-30T17:48:21.633Z,29.10
2022-10-30T17:49:21.574Z,28.20
2022-10-30T17:50:21.506Z,27.60
2022-10-30T17:51:21.447Z,25.90
2022-10-30T17:52:21.399Z,27.90
2022-10-30T17:53:21.287Z,28.20
2022-10-30T17:54:21.216Z,25.40
2022-10-30T17:55:21.186Z,26.70
2022-10-30T17:56:21.058Z,28.40
2022-10-30T17:57:21.018Z,26.70
2022-10-30T17:58:20.939Z,28.10
2022-10-30T17:59:20.861Z,30.90
2022-10-30T18:00:20.800Z,32.40
2022-10-30T18:01:20.890Z,26.60
2022-10-30T18:02:20.756Z,24.30
2022-10-30T18:03:20.599Z,24.40
2022-10-30T18:04:21.322Z,19.20
2022-10-30T18:05:20.480Z,25.20
2022-10-30T18:06:20.410Z,21.40
2022-10-30T18:07:20.378Z,21.20
2022-10-30T18:08:20.291Z,20.70
2022-10-30T18:09:20.241Z,25.30
2022-10-30T18:10:20.190Z,23.30
2022-10-30T18:11:20.135Z,21.80
2022-10-30T18:12:20.083Z,19.90
2022-10-30T18:13:20.014Z,23.00
2022-10-30T18:14:19.951Z,22.60
2022-10-30T18:15:19.899Z,24.40
2022-10-30T18:16:19.843Z,22.10
2022-10-30T18:17:19.801Z,24.40
2022-10-30T18:18:19.723Z,22.20
2022-10-30T18:19:19.713Z,20.90
2022-10-30T18:20:19.613Z,21.40
2022-10-30T18:21:19.616Z,20.50
2022-10-30T18:22:19.516Z,20.60
2022-10-30T18:23:38.867Z,21.90
2022-10-30T18:24:20.406Z,18.10
2022-10-30T18:25:19.347Z,26.50
2022-10-30T18:26:19.296Z,18.90
2022-10-30T18:27:19.237Z,19.70
2022-10-30T18:28:19.194Z,20.60
2022-10-30T18:29:19.116Z,20.90
2022-10-30T18:30:19.067Z,19.60
2022-10-30T18:31:19.017Z,18.90
2022-10-30T18:32:18.955Z,16.30
2022-10-30T18:33:18.927Z,20.40
2022-10-30T18:34:18.848Z,21.40
2022-10-30T18:35:18.798Z,28.20
2022-10-30T18:36:18.748Z,19.00
2022-10-30T18:37:18.738Z,16.30
2022-10-30T18:38:18.680Z,21.20
2022-10-30T18:39:18.609Z,22.70
2022-10-30T18:40:21.744Z,21.90
2022-10-30T18:41:18.488Z,18.40